createdAt,value
2022-11-17T00:03:44.719Z,8.68
2022-11-17T00:08:47.872Z,8.66
2022-11-17T00:14:08.332Z,8.62
2022-11-17T00:19:29.853Z,8.61
2022-11-17T00:24:32.607Z,8.60
2022-11-17T00:29:39.157Z,8.63
2022-11-17T00:34:43.837Z,8.66
2022-11-17T00:39:46.516Z,8.70
2022-11-17T00:44:49.298Z,8.74
2022-11-17T00:49:53.400Z,8.75
2022-11-17T00:54:56.098Z,8.77
2022-11-17T00:59:59.014Z,8.77
2022-11-17T01:05:03.141Z,8.78
2022-11-17T01:10:06.585Z,8.80
2022-11-17T01:15:10.414Z,8.80
2022-11-17T01:20:14.572Z,8.83
2022-11-17T01:25:17.438Z,8.81
2022-11-17T01:30:20.433Z,8.74
2022-11-17T01:35:24.527Z,8.72
2022-11-17T01:40:27.267Z,8.66
2022-11-17T01:45:29.970Z,8.63
2022-11-17T01:50:37.114Z,8.57
2022-11-17T01:55:42.748Z,8.53
2022-11-17T02:00:45.754Z,8.49
2022-11-17T02:05:56.711Z,8.47
2022-11-17T02:11:01.764Z,8.40
2022-11-17T02:16:04.816Z,8.38
2022-11-17T02:21:35.240Z,8.40
2022-11-17T02:27:04.932Z,8.39
2022-11-17T02:32:13.104Z,8.42
2022-11-17T02:37:25.545Z,8.38
2022-11-17T02:42:54.118Z,8.35
2022-11-17T02:48:00.994Z,8.35
2022-11-17T02:53:04.961Z,8.37
2022-11-17T02:58:12.057Z,8.38
2022-11-17T03:03:30.557Z,8.38
2022-11-17T03:08:46.009Z,8.39
2022-11-17T03:13:53.803Z,8.42
2022-11-17T03:19:06.896Z,8.42
2022-11-17T03:24:15.491Z,8.41
2022-11-17T03:29:22.471Z,8.39
2022-11-17T03:34:30.115Z,8.44
2022-11-17T03:39:34.908Z,8.44
2022-11-17T03:44:42.329Z,8.43
2022-11-17T03:49:52.681Z,8.41
2022-11-17T03:54:55.526Z,8.42
2022-11-17T04:00:02.630Z,8.46
2022-11-17T04:05:18.061Z,8.46
2022-11-17T04:10:22.048Z,8.46
2022-11-17T04:15:42.741Z,8.48
2022-11-17T04:20:50.201Z,8.43
2022-11-17T04:26:13.084Z,8.42
2022-11-17T04:31:17.337Z,8.36
2022-11-17T04:36:23.033Z,8.39
2022-11-17T04:41:45.706Z,8.39
2022-11-17T04:46:48.519Z,8.40
2022-11-17T04:51:53.742Z,8.42
2022-11-17T04:56:57.397Z,8.48
2022-11-17T05:02:05.535Z,8.48
2022-11-17T05:07:10.452Z,8.51
2022-11-17T05:12:30.925Z,8.54
2022-11-17T05:17:33.674Z,8.54
2022-11-17T05:22:55.537Z,8.57
2022-11-17T05:27:58.413Z,8.59
2022-11-17T05:33:01.266Z,8.57
2022-11-17T05:38:05.490Z,8.56
2022-11-17T05:43:08.220Z,8.55
2022-11-17T05:48:11.172Z,8.52
2022-11-17T05:53:15.422Z,8.49
2022-11-17T05:58:22.941Z,8.49
2022-11-17T06:03:30.200Z,8.50
2022-11-17T06:08:34.142Z,8.51
2022-11-17T06:13:37.217Z,8.53
2022-11-17T06:18:45.247Z,8.56
2022-11-17T06:23:50.893Z,8.58
2022-11-17T06:28:55.844Z,8.58
2022-11-17T06:34:00.214Z,8.57
2022-11-17T06:39:04.543Z,8.59
2022-11-17T06:44:07.880Z,8.62
2022-11-17T06:49:10.842Z,8.65
2022-11-17T06:54:15.797Z,8.69
2022-11-17T06:59:18.601Z,8.75
2022-11-17T07:04:21.386Z,8.81
2022-11-17T07:09:26.137Z,8.86
2022-11-17T07:14:29.206Z,8.89
2022-11-17T07:19:31.908Z,8.93
2022-11-17T07:24:36.094Z,8.91
2022-11-17T07:29:38.967Z,8.89
2022-11-17T07:34:42.580Z,8.85
2022-11-17T07:39:46.739Z,8.79
2022-11-17T07:44:52.830Z,8.80
2022-11-17T07:49:55.632Z,8.82
2022-11-17T07:54:59.848Z,8.87
2022-11-17T08:00:03.827Z,8.94
2022-11-17T08:05:17.230Z,9.02
2022-11-17T08:10:21.503Z,9.08
2022-11-17T08:15:24.549Z,9.12
2022-11-17T08:20:29.237Z,9.17
2022-11-17T08:25:33.526Z,9.19
2022-11-17T08:30:36.375Z,9.29
2022-11-17T08:35:39.293Z,9.38
2022-11-17T08:40:43.969Z,9.50
2022-11-17T08:45:46.845Z,9.54
2022-11-17T08:50:51.398Z,9.65
2022-11-17T08:55:55.563Z,9.80
2022-11-17T09:01:04.897Z,9.95
2022-11-17T09:06:08.252Z,10.00
2022-11-17T09:11:12.899Z,10.00
2022-11-17T09:16:17.401Z,10.10
2022-11-17T09:21:20.205Z,10.23
2022-11-17T09:26:25.093Z,10.40
2022-11-17T09:31:28.076Z,10.44
2022-11-17T09:36:30.909Z,10.66
2022-11-17T09:41:43.755Z,10.68
2022-11-17T09:46:58.168Z,11.12
2022-11-17T09:52:06.853Z,11.42
2022-11-17T09:57:21.111Z,11.55
2022-11-17T10:02:24.934Z,11.48
2022-11-17T10:07:28.728Z,11.41
2022-11-17T10:12:41.028Z,11.38
2022-11-17T10:17:43.783Z,11.40
2022-11-17T10:22:47.688Z,11.35
2022-11-17T10:27:54.908Z,11.30
2022-11-17T10:32:58.475Z,11.24
2022-11-17T10:38:03.751Z,11.20
2022-11-17T10:43:23.892Z,11.12
2022-11-17T10:48:29.747Z,10.74
2022-11-17T10:53:41.364Z,10.78
2022-11-17T10:59:02.361Z,10.63
2022-11-17T11:04:07.813Z,10.55
2022-11-17T11:09:15.571Z,10.67
2022-11-17T11:14:30.169Z,10.63
2022-11-17T11:19:32.902Z,10.90
2022-11-17T11:24:44.386Z,11.05
2022-11-17T11:30:00.929Z,10.83
2022-11-17T11:35:31.484Z,10.89
2022-11-17T11:40:39.249Z,10.99
2022-11-17T11:45:50.650Z,11.04
2022-11-17T11:51:01.021Z,10.98
2022-11-17T11:56:17.165Z,11.08
2022-11-17T12:01:23.581Z,11.20
2022-11-17T12:06:41.186Z,11.28
2022-11-17T12:12:02.702Z,11.19
2022-11-17T12:17:17.225Z,11.38
2022-11-17T12:22:40.378Z,11.44
2022-11-17T12:27:45.822Z,11.54
2022-11-17T12:32:56.062Z,11.55
2022-11-17T12:38:35.748Z,11.50
2022-11-17T12:43:38.641Z,11.62
2022-11-17T12:48:52.047Z,11.72
2022-11-17T12:54:07.483Z,11.65
2022-11-17T12:59:31.065Z,11.56
2022-11-17T13:04:49.369Z,11.75
2022-11-17T13:09:53.850Z,11.91
2022-11-17T13:14:58.666Z,12.12
2022-11-17T13:20:07.778Z,12.11
2022-11-17T13:25:22.475Z,12.14
2022-11-17T13:30:27.649Z,12.16
2022-11-17T13:35:33.740Z,12.46
2022-11-17T13:40:38.034Z,13.24
2022-11-17T13:45:44.505Z,13.27
2022-11-17T13:50:49.095Z,13.12
2022-11-17T13:55:52.954Z,12.74
2022-11-17T14:00:57.820Z,12.48
2022-11-17T14:06:02.554Z,12.02
2022-11-17T14:11:15.758Z,11.81
2022-11-17T14:16:25.742Z,11.66
2022-11-17T14:21:30.816Z,11.52
2022-11-17T14:26:33.976Z,11.35
2022-11-17T14:31:36.994Z,11.18
2022-11-17T14:36:42.081Z,10.98
2022-11-17T14:41:45.920Z,10.80
2022-11-17T14:46:48.849Z,10.73
2022-11-17T14:51:55.257Z,10.66
2022-11-17T14:56:58.037Z,10.59
2022-11-17T15:02:00.843Z,10.55
2022-11-17T15:07:05.120Z,10.60
2022-11-17T15:12:08.569Z,10.49
2022-11-17T15:17:14.318Z,10.49
2022-11-17T15:22:19.565Z,10.49
2022-11-17T15:27:23.937Z,10.46
2022-11-17T15:32:27.211Z,10.39
2022-11-17T15:37:31.421Z,10.25
2022-11-17T15:42:34.209Z,10.15
2022-11-17T15:47:37.003Z,10.02
2022-11-17T15:53:02.979Z,9.98
2022-11-17T15:58:04.342Z,9.90
2022-11-17T16:03:07.652Z,9.85
2022-11-17T16:08:15.003Z,9.80
2022-11-17T16:13:17.847Z,9.74
2022-11-17T16:18:21.265Z,9.60
2022-11-17T16:23:25.566Z,9.51
2022-11-17T16:28:28.338Z,9.41
2022-11-17T16:33:31.110Z,9.32
2022-11-17T16:38:35.531Z,9.28
2022-11-17T16:43:44.322Z,9.25
2022-11-17T16:48:48.759Z,9.19
2022-11-17T16:53:58.432Z,9.12
2022-11-17T16:59:01.752Z,9.09
2022-11-17T17:04:06.593Z,9.06
2022-11-17T17:09:12.276Z,9.02
2022-11-17T17:14:16.349Z,8.97
2022-11-17T17:19:19.385Z,8.95
2022-11-17T17:24:23.856Z,8.89
2022-11-17T17:29:26.639Z,8.83
2022-11-17T17:34:29.445Z,8.73
2022-11-17T17:39:34.373Z,8.69
2022-11-17T17:44:37.144Z,8.59
2022-11-17T17:49:39.856Z,8.52
2022-11-17T17:54:43.995Z,8.48
2022-11-17T17:59:46.961Z,8.48
2022-11-17T18:04:49.807Z,8.43
2022-11-17T18:09:53.963Z,8.42
2022-11-17T18:14:56.818Z,8.38
2022-11-17T18:19:59.586Z,8.34
2022-11-17T18:25:07.441Z,8.33
2022-11-17T18:30:11.644Z,8.24
2022-11-17T18:35:14.484Z,8.15
2022-11-17T18:40:19.256Z,8.12
2022-11-17T18:45:22.105Z,8.16
2022-11-17T18:50:24.983Z,8.17
2022-11-17T18:55:29.057Z,8.16
2022-11-17T19:00:31.837Z,8.18
2022-11-17T19:05:35.170Z,8.20
2022-11-17T19:10:39.424Z,8.25
2022-11-17T19:15:42.306Z,8.26
2022-11-17T19:20:45.445Z,8.31
2022-11-17T19:25:49.818Z,8.36
2022-11-17T19:30:52.546Z,8.40
2022-11-17T19:35:55.326Z,8.43
2022-11-17T19:41:03.900Z,8.42
2022-11-17T19:46:12.786Z,8.38
2022-11-17T19:51:19.863Z,8.36
2022-11-17T19:56:25.089Z,8.39
2022-11-17T20:01:29.291Z,8.40
2022-11-17T20:06:36.987Z,8.36
2022-11-17T20:11:42.081Z,8.36
2022-11-17T20:16:44.952Z,8.36
2022-11-17T20:21:47.817Z,8.35
2022-11-17T20:26:52.015Z,8.34
2022-11-17T20:31:54.847Z,8.34
2022-11-17T20:36:57.710Z,8.33
2022-11-17T20:42:01.946Z,8.31
2022-11-17T20:47:04.740Z,8.31
2022-11-17T20:52:13.073Z,8.33
2022-11-17T20:57:17.750Z,8.32
2022-11-17T21:02:20.677Z,8.32
2022-11-17T21:07:23.695Z,8.29
2022-11-17T21:12:28.638Z,8.26
2022-11-17T21:17:48.929Z,8.25
2022-11-17T21:22:51.818Z,8.25
2022-11-17T21:27:57.466Z,8.24
2022-11-17T21:33:00.409Z,8.19
2022-11-17T21:38:03.201Z,8.12
2022-11-17T21:43:07.472Z,8.13
2022-11-17T21:48:10.382Z,8.05
2022-11-17T21:53:13.217Z,8.04
2022-11-17T21:58:17.353Z,8.07
2022-11-17T22:03:20.108Z,8.07
2022-11-17T22:08:22.963Z,8.05
2022-11-17T22:13:27.495Z,8.01
2022-11-17T22:18:30.212Z,8.01
2022-11-17T22:23:33.348Z,7.98
2022-11-17T22:28:37.559Z,7.98
2022-11-17T22:33:40.667Z,7.99
2022-11-17T22:38:43.868Z,7.97
2022-11-17T22:43:51.133Z,7.95
2022-11-17T22:48:54.531Z,7.91
2022-11-17T22:53:57.341Z,7.86
2022-11-17T22:59:01.694Z,7.85
2022-11-17T23:04:04.642Z,7.85
2022-11-17T23:09:07.457Z,7.82
2022-11-17T23:14:13.653Z,7.82
2022-11-17T23:19:16.782Z,7.77
2022-11-17T23:24:19.877Z,7.75
2022-11-17T23:29:23.995Z,7.74
2022-11-17T23:34:27.610Z,7.72
2022-11-17T23:39:30.498Z,7.71
2022-11-17T23:44:34.829Z,7.70
2022-11-17T23:49:37.605Z,7.69
2022-11-17T23:54:40.402Z,7.68
2022-11-17T23:59:44.683Z,7.67
